Home > Products > Valid Products > MTR

000
SAUS42 KCHS 301136
MTRNBC
SPECI KNBC 301134Z 35007KT 10SM SCT005 BKN030 18/17 A2990 RMK AO2
T01830172





000
SAUS42 KCHS 301057
MTRNBC
METAR KNBC 301056Z 36005KT 10SM OVC004 18/17 A2989 RMK AO2 SLP121
FIRST T01830172





000
SAUS42 KCHS 301023
MTRNBC
SPECI KNBC 301022Z 36005KT 10SM OVC004 19/18 A2988 RMK AO2 FIRST
T01890178





000
SAUS42 KCHS 300957
MTRNBC
METAR KNBC 300956Z AUTO 01009KT 10SM OVC004 19/18 A2987 RMK AO2
SLP116 T01890178





000
SAUS42 KCHS 300941
MTRNBC
SPECI KNBC 300940Z AUTO 36009KT 10SM OVC004 19/18 A2987 RMK AO2
T01890178





000
SAUS42 KCHS 300914
MTRNBC
SPECI KNBC 300913Z AUTO 36010KT 10SM BKN005 OVC027 19/18 A2987 RMK
AO2 T01890178





000
SAUS42 KCHS 300857
MTRNBC
METAR KNBC 300856Z AUTO 01009KT 10SM BKN006 OVC025 19/18 A2987 RMK
AO2 SLP115 T01890178 58001





000
SAUS42 KCHS 300757
MTRNBC
METAR KNBC 300756Z AUTO 02009KT 10SM BKN006 OVC048 19/18 A2987 RMK
AO2 SLP116 T01940178





000
SAUS42 KCHS 300728
MTRNBC
SPECI KNBC 300726Z AUTO 02007KT 10SM BKN006 BKN029 OVC034 19/18
A2987 RMK AO2 T01940178





000
SAUS42 KCHS 300717
MTRNBC
SPECI KNBC 300716Z AUTO 01008KT 10SM SCT006 BKN029 OVC050 19/18
A2987 RMK AO2 T01940183





000
SAUS42 KCHS 300657
MTRNBC
METAR KNBC 300656Z AUTO 01010KT 10SM FEW007 BKN031 OVC050 19/18
A2987 RMK AO2 SLP116 T01940183





000
SAUS42 KCHS 300653
MTRNBC
SPECI KNBC 300652Z AUTO 36009KT 10SM FEW007 BKN032 OVC050 19/18
A2987 RMK AO2





000
SAUS42 KCHS 300606
MTRNBC
SPECI KNBC 300605Z AUTO 02009KT 10SM FEW007 OVC022 20/18 A2989 RMK
AO2 T02000183





000
SAUS42 KCHS 300557
MTRNBC
METAR KNBC 300556Z AUTO 02007KT 10SM OVC022 20/18 A2989 RMK AO2
SLP121 60000 T02000183 10200 20194 56014





000
SAUS42 KCHS 300457
MTRNBC
METAR KNBC 300456Z AUTO 03008KT 10SM OVC018 20/18 A2990 RMK AO2
SLP124 T02000183 402390194





000
SAUS42 KCHS 300404
MTRNBC
SPECI KNBC 300403Z AUTO 03008KT 10SM FEW007 OVC019 20/19 A2991 RMK
AO2 T02000189





000
SAUS42 KCHS 300357
MTRNBC
METAR KNBC 300356Z AUTO 03008KT 10SM OVC019 20/19 A2991 RMK AO2
SLP129 T02000189





000
SAUS42 KCHS 300317
MTRNBC
SPECI KNBC 300316Z 03006KT 10SM SCT010 OVC018 20/19 A2992 RMK AO2
T02000189





000
SAUS42 KCHS 300305
MTRNBC
SPECI KNBC 300304Z 03008KT 10SM BKN009 OVC018 20/19 A2993 RMK AO2
CIG 007V013 T02000189





000
SAUS42 KCHS 300257
MTRNBC
METAR KNBC 300256Z 03008KT 10SM SCT009 OVC018 20/19 A2993 RMK AO2
SLP135 60000 T02000189 50002





000
SAUS42 KCHS 300245
MTRNBC
SPECI KNBC 300244Z 04009KT 10SM FEW009 OVC018 20/19 A2993 RMK AO2
T02000189





000
SAUS42 KCHS 300206
MTRNBC
SPECI KNBC 300205Z 04008KT 10SM FEW012 OVC018 20/19 A2993 RMK AO2
T02000189





000
SAUS42 KCHS 300157
MTRNBC
METAR KNBC 300156Z 05007KT 10SM BKN012 OVC018 20/19 A2993 RMK AO2
DZE41 SLP136 P0000 T02000189





000
SAUS42 KCHS 300155
MTRNBC
SPECI KNBC 300154Z 04007KT 10SM BKN012 OVC018 20/19 A2993 RMK AO2
DZE41 P0000





000
SAUS42 KCHS 300146
MTRNBC
SPECI KNBC 300144Z 03008KT 10SM SCT010 OVC018 20/19 A2993 RMK AO2
DZE41 P0000 T02000189





000
SAUS42 KCHS 300057
MTRNBC
METAR KNBC 300056Z 05007KT 6SM -DZ BKN009 OVC018 19/18 A2992 RMK AO2
SLP133 P0000 T01940183





000
SAUS42 KCHS 300047
MTRNBC
SPECI KNBC 300046Z 04007KT 6SM -DZ BKN009 BKN019 OVC029 20/19 A2992
RMK AO2 P0000 T02000189





000
SAUS42 KCHS 292357
MTRNBC
METAR KNBC 292356Z 06006KT 2SM DZ BKN007 OVC027 20/19 A2992 RMK AO2
SFC VIS 3 RAE26DZB26 SLP131 P0001 60009 T02000189 10239 20200 51003





000
SAUS42 KCHS 292348
MTRNBC
SPECI KNBC 292347Z 05007KT 2SM DZ SCT005 BKN023 OVC030 20/19 A2992
RMK AO2 SFC VIS 5 RAE26DZB26 P0001 T02000189





000
SAUS42 KCHS 292338
MTRNBC
SPECI KNBC 292337Z 03008KT 2SM DZ SCT007 BKN011 OVC029 20/19 A2992
RMK AO2 SFC VIS 5 RAE26DZB26 P0001 T02000194





000
SAUS42 KCHS 292257
MTRNBC
METAR KNBC 292256Z 04010KT 10SM -RA BKN009 OVC015 21/19 A2992 RMK
AO2 CIG 006V012 SLP131 P0003 T02060189





000
SAUS42 KCHS 292157
MTRNBC
METAR KNBC 292156Z 03009KT 5SM RA BR OVC006 21/20 A2991 RMK AO2
SLP128 P0003 T02110200





000
SAUS42 KCHS 292057
MTRNBC
METAR KNBC 292056Z 01009KT 9SM RA OVC006 21/20 A2991 RMK AO2 SLP128
P0002 60002 T02110200 56007





000
SAUS42 KCHS 292012
MTRNBC
SPECI KNBC 292011Z 01009KT 10SM RA BKN005 OVC014 22/21 A2992 RMK AO2
P0000 T02170206





000
SAUS42 KCHS 292004
MTRNBC
SPECI KNBC 292003Z 01008KT 10SM -RA SCT005 OVC013 22/21 A2991 RMK
AO2 P0000 T02220206





000
SAUS42 KCHS 291957
MTRNBC
METAR KNBC 291956Z 03007KT 10SM -RA OVC013 23/21 A2991 RMK AO2
SLP130 P0000 T02280206





000
SAUS42 KCHS 291857
MTRNBC
METAR KNBC 291856Z 05008KT 10SM -RA OVC009 23/21 A2991 RMK AO2
RAE18B53DZB18E53 SLP129 P0000 T02330206





000
SAUS42 KCHS 291824
MTRNBC
SPECI KNBC 291823Z 05007KT 10SM DZ OVC009 24/22 A2992 RMK AO2
RAE18DZB18 CIG 008V013 P0000 T02390217





000
SAUS42 KCHS 291816
MTRNBC
SPECI KNBC 291815Z 05006KT 10SM RA OVC011 24/22 A2992 RMK AO2 CIG
007V013 P0000 T02390217





000
SAUS42 KCHS 291757
MTRNBC
METAR KNBC 291756Z 06008KT 5SM RA BR BKN008 OVC013 23/21 A2993 RMK
AO2 CIG 007V012 SLP135 P0002 60003 T02280211 10239 20228 58014





000
SAUS42 KCHS 291730
MTRNBC
SPECI KNBC 291729Z 06005KT 9SM -RA OVC009 23/22 A2994 RMK AO2 CIG
007V014 P0001 T02330217





000
SAUS42 KCHS 291704
MTRNBC
SPECI KNBC 291703Z 06005KT 10SM -RA OVC010 23/22 A2995 RMK AO2 CIG
008V012 P0000 T02330217





000
SAUS42 KCHS 291657
MTRNBC
METAR KNBC 291656Z 06004KT 10SM -RA BKN007 OVC010 23/22 A2995 RMK
AO2 SLP144 P0000 T02330217





000
SAUS42 KCHS 291642
MTRNBC
SPECI KNBC 291641Z 06005KT 10SM -RA OVC011 23/22 A2996 RMK AO2 P0000
T02330217





000
SAUS42 KCHS 291627
MTRNBC
SPECI KNBC 291626Z 05005KT 10SM -RA OVC009 24/22 A2996 RMK AO2 CIG
008V013 P0000 T02390217





000
SAUS42 KCHS 291605
MTRNBC
SPECI KNBC 291604Z 06005KT 10SM -RA OVC010 23/22 A2996 RMK AO2 CIG
008V013 P0000 T02330217





000
SAUS42 KCHS 291557
MTRNBC
METAR KNBC 291556Z 05004KT 7SM -RA OVC009 23/22 A2996 RMK AO2
DZE54RAB54 CIG 007V013 SLP146 P0001 T02330217





000
SAUS42 KCHS 291457
MTRNBC
METAR KNBC 291456Z 04006KT 10SM DZ OVC009 23/22 A2997 RMK AO2 SLP148
P0000 60000 T02330217 55001





000
SAUS42 KCHS 291358
MTRNBC
METAR KNBC 291356Z 05005KT 10SM DZ OVC006 23/22 A2997 RMK AO2 SLP147
P0000 T02280217





000
SAUS42 KCHS 291353
MTRNBC
SPECI KNBC 291352Z 05006KT 10SM DZ OVC006 23/21 A2997 RMK AO2 P0000





000
SAUS42 KCHS 291343
MTRNBC
SPECI KNBC 291341Z 04007KT 10SM DZ OVC005 23/22 A2997 RMK AO2 P0000
T02280217





000
SAUS42 KCHS 291257
MTRNBC
METAR KNBC 291256Z 03007KT 6SM DZ BR BKN006 OVC044 23/22 A2997 RMK
AO2 SLP149 P0000 T02280217





000
SAUS42 KCHS 291157
MTRNBC
METAR KNBC 291156Z 05005KT 10SM DZ OVC007 23/21 A2997 RMK AO2 DZB54
SLP148 WND DATA ESTIMATED P0000 60000 T02280211 10233 20222 53001





000
SAUS42 KCHS 291057
MTRNBC
METAR KNBC 291056Z 03006KT 10SM BKN007 OVC015 23/21 A2997 RMK AO2
SLP148 T02280211





000
SAUS42 KCHS 291032
MTRNBC
SPECI KNBC 291031Z 04005KT 10SM BR OVC007 23/21 A2997 RMK AO2 CIG
006V011 WND DATA ESTIMATED FIRST T02280211





000
SAUS42 KCHS 290957
MTRNBC
METAR KNBC 290956Z AUTO 04006KT 10SM OVC007 23/21 A2996 RMK AO2
SLP146 T02280211





000
SAUS42 KCHS 290857
MTRNBC
METAR KNBC 290856Z AUTO 06005KT 10SM OVC006 23/22 A2997 RMK AO2
SLP148 T02280217 55008





000
SAUS42 KCHS 290757
MTRNBC
METAR KNBC 290756Z AUTO 05005KT 10SM BKN008 OVC019 23/22 A2996 RMK
AO2 SLP147 T02280217





000
SAUS42 KCHS 290657
MTRNBC
METAR KNBC 290656Z AUTO 04007KT 10SM OVC009 23/22 A2998 RMK AO2 CIG
006V013 SLP151 T02330217





000
SAUS42 KCHS 290557
MTRNBC
METAR KNBC 290556Z AUTO 05005KT 10SM BKN008 BKN018 OVC025 23/22
A2999 RMK AO2 SLP155 T02330217 10239 20233 58017





000
SAUS42 KCHS 290457
MTRNBC
METAR KNBC 290456Z AUTO 04005KT 10SM BKN009 OVC015 23/22 A3001 RMK
AO2 CIG 006V012 SLP162 T02330217 402780217





000
SAUS42 KCHS 290435
MTRNBC
SPECI KNBC 290433Z AUTO 05005KT 10SM OVC009 23/22 A3002 RMK AO2 CIG
006V011 T02330217





000
SAUS42 KCHS 290410
MTRNBC
SPECI KNBC 290409Z AUTO 05006KT 10SM BKN010 OVC020 23/22 A3002 RMK
AO2 T02330217





000
SAUS42 KCHS 290357
MTRNBC
METAR KNBC 290356Z AUTO 05005KT 10SM FEW012 OVC019 23/22 A3002 RMK
AO2 SLP167 T02330217





000
SAUS42 KCHS 290322
MTRNBC
SPECI KNBC 290320Z AUTO 03006KT 10SM SCT007 OVC019 23/22 A3003 RMK
AO2 T02330217





000
SAUS42 KCHS 290257
MTRNBC
METAR KNBC 290256Z AUTO 02006KT 10SM OVC007 23/22 A3004 RMK AO2 CIG
005V013 SLP172 T02330222 50004





000
SAUS42 KCHS 290217
MTRNBC
SPECI KNBC 290216Z AUTO 02006KT 10SM OVC008 23/22 A3005 RMK AO2 CIG
006V011 T02330222





000
SAUS42 KCHS 290209
MTRNBC
SPECI KNBC 290208Z AUTO 36006KT 10SM OVC010 23/22 A3004 RMK AO2 CIG
006V013 T02330222





000
SAUS42 KCHS 290157
MTRNBC
METAR KNBC 290156Z AUTO 01006KT 10SM BKN009 BKN020 OVC039 23/22
A3004 RMK AO2 CIG 006V013 SLP172 T02330222





000
SAUS42 KCHS 290149
MTRNBC
SPECI KNBC 290148Z AUTO 01007KT 10SM FEW007 BKN013 OVC039 23/22
A3004 RMK AO2 T02330222





000
SAUS42 KCHS 290141
MTRNBC
SPECI KNBC 290140Z AUTO 02006KT 10SM FEW009 BKN015 OVC039 23/22
A3004 RMK AO2 T02330222





000
SAUS42 KCHS 290106
MTRNBC
SPECI KNBC 290105Z AUTO 03006KT 10SM FEW008 BKN014 OVC019 23/22
A3004 RMK AO2 T02330222





000
SAUS42 KCHS 290057
MTRNBC
METAR KNBC 290056Z AUTO 02006KT 10SM BKN008 BKN014 OVC019 23/22
A3004 RMK AO2 CIG 005V011 SLP174 T02330222





000
SAUS42 KCHS 290047
MTRNBC
SPECI KNBC 290046Z AUTO 02007KT 10SM BKN008 OVC019 24/22 A3004 RMK
AO2 CIG 005V013 T02390222





000
SAUS42 KCHS 290030
MTRNBC
SPECI KNBC 290029Z AUTO 02007KT 10SM FEW006 BKN011 OVC019 24/22
A3003 RMK AO2 T02390222





000
SAUS42 KCHS 282357
MTRNBC
METAR KNBC 282356Z AUTO 01006KT 10SM BKN017 24/22 A3003 RMK AO2
SLP168 T02390222 10278 20239 50001





000
SAUS42 KCHS 282331
MTRNBC
SPECI KNBC 282330Z AUTO 01007KT 10SM FEW009 BKN017 BKN042 24/22
A3003 RMK AO2 T02390222





000
SAUS42 KCHS 282316
MTRNBC
SPECI KNBC 282314Z AUTO 02007KT 10SM SCT010 OVC015 24/22 A3003 RMK
AO2 T02440222





000
SAUS42 KCHS 282257
MTRNBC
METAR KNBC 282256Z AUTO 02006KT 10SM BKN014 OVC022 24/22 A3003 RMK
AO2 SLP169 T02440222





000
SAUS42 KCHS 282256
MTRNBC
SPECI KNBC 282254Z AUTO 02007KT 10SM BKN014 OVC022 24/22 A3003 RMK
AO2





000
SAUS42 KCHS 282220
MTRNBC
SPECI KNBC 282219Z AUTO 02008KT 10SM SCT013 OVC018 25/22 A3003 RMK
AO2 T02500222





000
SAUS42 KCHS 282212
MTRNBC
SPECI KNBC 282210Z AUTO 01006KT 10SM BKN013 OVC020 25/23 A3003 RMK
AO2 T02500228





000
SAUS42 KCHS 282157
MTRNBC
METAR KNBC 282156Z AUTO 02007KT 10SM SCT015 BKN020 OVC031 26/22
A3002 RMK AO2 SLP167 T02560222





000
SAUS42 KCHS 282057
MTRNBC
METAR KNBC 282056Z 01004KT 10SM BKN016 BKN045 27/23 A3001 RMK AO2
SLP164 T02670228 56008





000
SAUS42 KCHS 282023
MTRNBC
SPECI KNBC 282022Z 02006KT 10SM SCT016 BKN025 OVC038 26/23 A3002 RMK
AO2 T02610228





000
SAUS42 KCHS 281957
MTRNBC
METAR KNBC 281956Z VRB03KT 10SM OVC014 26/23 A3002 RMK AO2 SLP166
FIRST T02560228





000
SAUS42 KCHS 281857
MTRNBC
METAR KNBC 281856Z AUTO 10SM OVC017 27/22 A3004 RMK AO2 SLP172
T02720222





000
SAUS42 KCHS 281757
MTRNBC
METAR KNBC 281756Z AUTO 10SM BKN019 OVC026 27/22 A3006 RMK AO2
SLP179 T02720222 10272 20222 58015





000
SAUS42 KCHS 281710
MTRNBC
SPECI KNBC 281709Z AUTO 10SM OVC015 27/22 A3008 RMK AO2 T02670217





000
SAUS42 KCHS 281657
MTRNBC
METAR KNBC 281656Z AUTO 10SM OVC014 26/22 A3008 RMK AO2 SLP187
T02610217





000
SAUS42 KCHS 281557
MTRNBC
METAR KNBC 281556Z AUTO 10SM OVC012 25/21 A3009 RMK AO2 SLP190
T02500211





000
SAUS42 KCHS 281457
MTRNBC
METAR KNBC 281456Z AUTO 10SM OVC010 24/21 A3010 RMK AO2 SLP193
T02440211 50005





000
SAUS42 KCHS 281440
MTRNBC
SPECI KNBC 281439Z AUTO 10SM OVC010 24/21 A3010 RMK AO2 T02390206





000
SAUS42 KCHS 281357
MTRNBC
METAR KNBC 281356Z AUTO 10SM OVC009 23/21 A3010 RMK AO2 SLP194
T02330206





000
SAUS42 KCHS 281257
MTRNBC
METAR KNBC 281256Z AUTO 10SM OVC008 22/20 A3009 RMK AO2 SLP191
T02220200





000
SAUS42 KCHS 281157
MTRNBC
METAR KNBC 281156Z AUTO 10SM OVC008 22/20 A3009 RMK AO2 SLP188
T02220200 10222 20217 53005





000
SAUS42 KCHS 281057
MTRNBC
METAR KNBC 281056Z AUTO 10SM OVC008 22/20 A3008 RMK AO2 SLP186
T02170200





000
SAUS42 KCHS 280957
MTRNBC
METAR KNBC 280956Z AUTO 10SM OVC010 22/20 A3007 RMK AO2 SLP183
T02220200





000
SAUS42 KCHS 280857
MTRNBC
METAR KNBC 280856Z AUTO 10SM OVC011 22/20 A3007 RMK AO2 SLP182
T02220200 56009





000
SAUS42 KCHS 280757
MTRNBC
METAR KNBC 280756Z AUTO 10SM OVC014 22/20 A3008 RMK AO2 SLP186
T02220200





000
SAUS42 KCHS 280657
MTRNBC
METAR KNBC 280656Z AUTO 10SM OVC012 22/20 A3008 RMK AO2 SLP187
T02220200





000
SAUS42 KCHS 280557
MTRNBC
METAR KNBC 280556Z AUTO 10SM OVC013 22/20 A3009 RMK AO2 SLP191
T02220200 10233 20222 56003





000
SAUS42 KCHS 280552
MTRNBC
SPECI KNBC 280551Z AUTO 10SM OVC013 22/20 A3009 RMK AO2





000
SAUS42 KCHS 280457
MTRNBC
METAR KNBC 280456Z AUTO 10SM OVC015 22/20 A3009 RMK AO2 SLP190
T02220200 402830194





000
SAUS42 KCHS 280357
MTRNBC
METAR KNBC 280356Z AUTO 10SM OVC021 23/20 A3010 RMK AO2 SLP194
T02280200





000
SAUS42 KCHS 280258
MTRNBC
METAR KNBC 280256Z AUTO 10SM FEW014 OVC028 23/20 A3012 RMK AO2
SLP199 T02280200 51012





000
SAUS42 KCHS 280250
MTRNBC
SPECI KNBC 280249Z AUTO 10SM SCT014 OVC028 23/20 A3012 RMK AO2
T02280200





000
SAUS42 KCHS 280226
MTRNBC
SPECI KNBC 280225Z AUTO 10SM OVC014 23/20 A3012 RMK AO2 T02280200





000
SAUS42 KCHS 280158
MTRNBC
METAR KNBC 280156Z AUTO 10SM OVC015 23/20 A3011 RMK AO2 SLP197
T02280200





000
SAUS42 KCHS 280136
MTRNBC
SPECI KNBC 280135Z AUTO 10SM OVC015 23/20 A3011 RMK AO2 T02280200





000
SAUS42 KCHS 280057
MTRNBC
METAR KNBC 280056Z AUTO 10SM OVC012 23/20 A3010 RMK AO2 SLP192
T02280200





000
SAUS42 KCHS 280017
MTRNBC
SPECI KNBC 280016Z AUTO 10SM OVC014 23/21 A3009 RMK AO2 T02330206





000
SAUS42 KCHS 272357
MTRNBC
METAR KNBC 272356Z AUTO 10SM OVC018 23/21 A3008 RMK AO2 SLP187
T02330206 10283 20233 53009





000
SAUS42 KCHS 272257
MTRNBC
METAR KNBC 272256Z AUTO 10SM OVC020 24/21 A3007 RMK AO2 SLP184
T02390206





000
SAUS42 KCHS 272157
MTRNBC
METAR KNBC 272156Z AUTO 10SM OVC021 25/21 A3006 RMK AO2 SLP178
T02500206





000
SAUS42 KCHS 272057
MTRNBC
METAR KNBC 272056Z AUTO 10SM OVC024 26/21 A3005 RMK AO2 SLP178
T02610211 56009





000
SAUS42 KCHS 271957
MTRNBC
METAR KNBC 271956Z AUTO 10SM OVC025 27/21 A3006 RMK AO2 SLP179
T02670211





000
SAUS42 KCHS 271857
MTRNBC
METAR KNBC 271856Z AUTO 10SM OVC024 27/21 A3007 RMK AO2 SLP183
T02670211





000
SAUS42 KCHS 271804
MTRNBC
SPECI KNBC 271803Z AUTO 10SM BKN024 28/21 A3008 RMK AO2 T02780206





000
SAUS42 KCHS 271757
MTRNBC
METAR KNBC 271756Z AUTO 10SM SCT023 BKN036 28/21 A3008 RMK AO2
SLP186 60000 T02780206 10278 20200 58013





000
SAUS42 KCHS 271709
MTRNBC
SPECI KNBC 271708Z AUTO 10SM FEW021 OVC030 27/21 A3010 RMK AO2
T02720206





000
SAUS42 KCHS 271657
MTRNBC
METAR KNBC 271656Z AUTO 10SM SCT020 OVC028 27/20 A3010 RMK AO2
SLP193 T02670200





000
SAUS42 KCHS 271557
MTRNBC
METAR KNBC 271556Z AUTO 10SM OVC017 25/19 A3011 RMK AO2 SLP198
T02500194





000
SAUS42 KCHS 271526
MTRNBC
SPECI KNBC 271525Z AUTO 10SM BKN017 25/19 A3012 RMK AO2 T02500194





000
SAUS42 KCHS 271458
MTRNBC
METAR KNBC 271456Z AUTO 10SM FEW016 SCT040 OVC049 24/19 A3012 RMK
AO2 SLP200 60000 T02390189 51005





000
SAUS42 KCHS 271446
MTRNBC
SPECI KNBC 271445Z AUTO 10SM SCT016 OVC043 23/19 A3012 RMK AO2
T02330189





000
SAUS42 KCHS 271357
MTRNBC
METAR KNBC 271356Z AUTO 10SM OVC016 22/18 A3012 RMK AO2 SLP198
T02220183





000
SAUS42 KCHS 271257
MTRNBC
METAR KNBC 271256Z AUTO 7SM OVC016 21/18 A3011 RMK AO2 RAE08 SLP196
P0000 T02060183





000
SAUS42 KCHS 271211
MTRNBC
SPECI KNBC 271209Z AUTO 6SM BR OVC016 20/18 A3011 RMK AO2 RAE08
P0000 T02000183





    US Dept of Commerce
    National Oceanic and Atmospheric Administration
    National Weather Service
    1325 East West Highway
    Silver Spring, MD 20910
    Page Author: NWS Internet Services Team
Disclaimer
Information Quality
Credits
Glossary
Privacy Policy
Freedom of Information Act (FOIA)
About Us
Career Opportunities